createdAt,value
2022-12-18T00:00:00.597Z,70.21
2022-12-18T00:05:04.138Z,70.36
2022-12-18T00:10:08.742Z,69.06
2022-12-18T00:15:13.665Z,70.85
2022-12-18T00:20:21.930Z,69.78
2022-12-18T00:25:25.560Z,69.71
2022-12-18T00:30:30.494Z,69.05
2022-12-18T00:35:34.308Z,69.86
2022-12-18T00:40:37.830Z,70.33
2022-12-18T00:45:42.708Z,69.19
2022-12-18T00:50:46.392Z,71.26
2022-12-18T00:55:49.945Z,69.85
2022-12-18T01:00:54.878Z,69.21
2022-12-18T01:05:58.438Z,70.76
2022-12-18T01:11:02.123Z,69.94
2022-12-18T01:16:07.434Z,69.70
2022-12-18T01:21:13.784Z,68.45
2022-12-18T01:26:18.375Z,68.34
2022-12-18T01:31:25.587Z,69.10
2022-12-18T01:36:31.685Z,69.60
2022-12-18T01:41:49.897Z,70.54
2022-12-18T01:46:54.799Z,70.29
2022-12-18T01:51:58.227Z,71.13
2022-12-18T01:57:02.164Z,70.50
2022-12-18T02:02:07.303Z,69.41
2022-12-18T02:07:18.721Z,70.73
2022-12-18T02:12:24.290Z,69.20
2022-12-18T02:17:34.793Z,69.92
2022-12-18T02:22:42.449Z,68.89
2022-12-18T02:27:48.425Z,69.43
2022-12-18T02:32:53.484Z,69.10
2022-12-18T02:37:57.790Z,69.54
2022-12-18T02:43:09.981Z,70.09
2022-12-18T02:48:13.429Z,69.50
2022-12-18T02:53:19.974Z,70.49
2022-12-18T02:58:30.097Z,69.36
2022-12-18T03:03:38.826Z,70.29
2022-12-18T03:08:45.746Z,69.51
2022-12-18T03:13:53.510Z,70.74
2022-12-18T03:18:59.056Z,70.29
2022-12-18T03:24:03.143Z,69.12
2022-12-18T03:29:12.214Z,70.75
2022-12-18T03:34:18.638Z,70.71
2022-12-18T03:39:22.241Z,70.39
2022-12-18T03:44:32.294Z,70.66
2022-12-18T03:49:39.035Z,71.61
2022-12-18T03:54:44.023Z,70.64
2022-12-18T03:59:50.690Z,71.05
2022-12-18T04:04:55.469Z,71.21
2022-12-18T04:10:00.673Z,70.12
2022-12-18T04:15:06.362Z,71.22
2022-12-18T04:20:10.880Z,70.40
2022-12-18T04:25:14.537Z,70.05
2022-12-18T04:30:19.657Z,70.27
2022-12-18T04:35:23.131Z,71.11
2022-12-18T04:40:26.632Z,70.50
2022-12-18T04:45:32.349Z,70.67
2022-12-18T04:50:35.794Z,70.65
2022-12-18T04:55:39.223Z,70.64
2022-12-18T05:00:44.441Z,70.85
2022-12-18T05:05:47.921Z,70.83
2022-12-18T05:10:51.486Z,70.60
2022-12-18T05:15:57.044Z,70.05
2022-12-18T05:21:00.608Z,70.37
2022-12-18T05:26:05.945Z,70.98
2022-12-18T05:31:10.904Z,70.75
2022-12-18T05:36:14.497Z,70.80
2022-12-18T05:41:18.104Z,70.94
2022-12-18T05:46:23.017Z,70.24
2022-12-18T05:51:26.549Z,71.17
2022-12-18T05:56:30.093Z,70.14
2022-12-18T06:01:35.034Z,70.20
2022-12-18T06:06:38.598Z,70.59
2022-12-18T06:11:42.536Z,70.75
2022-12-18T06:16:47.438Z,70.33
2022-12-18T06:21:51.917Z,70.28
2022-12-18T06:26:55.354Z,70.65
2022-12-18T06:32:00.288Z,70.96
2022-12-18T06:37:03.803Z,70.71
2022-12-18T06:42:07.581Z,70.32
2022-12-18T06:47:12.852Z,70.46
2022-12-18T06:52:16.341Z,70.84
2022-12-18T06:57:19.767Z,70.75
2022-12-18T07:02:24.759Z,70.32
2022-12-18T07:07:28.411Z,70.68
2022-12-18T07:12:31.961Z,70.27
2022-12-18T07:17:36.909Z,70.33
2022-12-18T07:22:40.407Z,69.81
2022-12-18T07:27:43.901Z,70.63
2022-12-18T07:32:48.821Z,69.81
2022-12-18T07:37:52.278Z,70.94
2022-12-18T07:42:55.710Z,69.35
2022-12-18T07:48:00.594Z,69.17
2022-12-18T07:53:04.769Z,68.59
2022-12-18T07:58:08.262Z,68.80
2022-12-18T08:03:13.212Z,69.69
2022-12-18T08:08:16.693Z,69.18
2022-12-18T08:13:20.188Z,68.60
2022-12-18T08:18:25.306Z,69.50
2022-12-18T08:23:29.032Z,69.16
2022-12-18T08:28:32.625Z,69.10
2022-12-18T08:33:39.054Z,69.22
2022-12-18T08:38:42.808Z,69.84
2022-12-18T08:44:03.621Z,68.98
2022-12-18T08:49:09.140Z,69.48
2022-12-18T08:54:13.882Z,68.46
2022-12-18T08:59:22.506Z,69.88
2022-12-18T09:04:27.393Z,69.56
2022-12-18T09:09:30.940Z,69.40
2022-12-18T09:14:34.402Z,68.17
2022-12-18T09:19:39.281Z,65.62
2022-12-18T09:24:42.828Z,67.17
2022-12-18T09:29:46.346Z,66.68
2022-12-18T09:34:51.583Z,66.65
2022-12-18T09:39:55.042Z,66.49
2022-12-18T09:44:58.749Z,64.92
2022-12-18T09:50:05.802Z,64.64
2022-12-18T09:55:15.602Z,65.19
2022-12-18T10:00:21.907Z,64.61
2022-12-18T10:05:33.999Z,63.94
2022-12-18T10:10:41.217Z,63.27
2022-12-18T10:15:55.257Z,63.54
2022-12-18T10:21:04.907Z,62.81
2022-12-18T10:26:13.248Z,63.77
2022-12-18T10:31:19.235Z,62.26
2022-12-18T10:36:25.934Z,63.46
2022-12-18T10:41:32.061Z,60.78
2022-12-18T10:46:38.362Z,62.15
2022-12-18T10:51:43.350Z,63.77
2022-12-18T10:56:47.519Z,63.10
2022-12-18T11:01:53.151Z,61.67
2022-12-18T11:07:00.481Z,62.16
2022-12-18T11:12:07.318Z,59.48
2022-12-18T11:17:25.886Z,62.29
2022-12-18T11:22:32.543Z,61.95
2022-12-18T11:27:36.036Z,61.63
2022-12-18T11:32:41.362Z,62.92
2022-12-18T11:37:49.174Z,61.61
2022-12-18T11:42:56.326Z,60.54
2022-12-18T11:48:03.348Z,60.52
2022-12-18T11:53:12.611Z,60.99
2022-12-18T11:58:26.422Z,61.40
2022-12-18T12:03:58.677Z,60.48
2022-12-18T12:09:11.164Z,60.97
2022-12-18T12:14:30.393Z,58.99
2022-12-18T12:19:41.298Z,57.89
2022-12-18T12:24:55.346Z,60.33
2022-12-18T12:30:06.054Z,59.16
2022-12-18T12:35:24.998Z,59.41
2022-12-18T12:41:03.649Z,58.40
2022-12-18T12:45:58.673Z,54.89
2022-12-18T12:51:03.506Z,51.15
2022-12-18T12:56:09.437Z,51.07
2022-12-18T13:01:23.611Z,48.31
2022-12-18T13:06:42.940Z,41.10
2022-12-18T13:12:06.911Z,45.41
2022-12-18T13:17:30.462Z,51.01
2022-12-18T13:22:37.608Z,51.47
2022-12-18T13:28:02.507Z,57.41
2022-12-18T13:33:56.272Z,39.80
2022-12-18T13:39:30.286Z,44.35
2022-12-18T13:44:41.532Z,41.76
2022-12-18T13:49:46.622Z,46.13
2022-12-18T13:54:54.358Z,37.13
2022-12-18T14:00:00.637Z,33.04
2022-12-18T14:05:04.118Z,45.07
2022-12-18T14:10:42.128Z,51.66
2022-12-18T14:15:43.209Z,50.79
2022-12-18T14:20:52.291Z,56.19
2022-12-18T14:25:58.613Z,58.65
2022-12-18T14:31:07.325Z,51.49
2022-12-18T14:36:18.979Z,59.56
2022-12-18T14:41:23.280Z,59.18
2022-12-18T14:46:37.514Z,60.21
2022-12-18T14:51:41.017Z,61.13
2022-12-18T14:56:47.443Z,60.63
2022-12-18T15:02:00.257Z,56.99
2022-12-18T15:07:12.327Z,61.87
2022-12-18T15:12:28.923Z,62.23
2022-12-18T15:17:33.818Z,63.00
2022-12-18T15:22:38.042Z,62.61
2022-12-18T15:27:47.154Z,63.36
2022-12-18T15:32:52.578Z,62.98
2022-12-18T15:37:56.061Z,64.08
2022-12-18T15:43:17.010Z,63.74
2022-12-18T15:48:23.917Z,64.84
2022-12-18T15:53:31.063Z,64.97
2022-12-18T15:58:35.141Z,63.91
2022-12-18T16:03:40.442Z,65.08
2022-12-18T16:08:44.375Z,64.77
2022-12-18T16:13:48.177Z,64.64
2022-12-18T16:18:53.048Z,63.97
2022-12-18T16:23:56.574Z,65.15
2022-12-18T16:29:00.197Z,63.93
2022-12-18T16:34:15.474Z,65.16
2022-12-18T16:39:19.057Z,64.95
2022-12-18T16:44:22.757Z,65.08
2022-12-18T16:49:27.814Z,65.53
2022-12-18T16:54:31.714Z,64.29
2022-12-18T16:59:35.340Z,65.03
2022-12-18T17:04:41.133Z,64.68
2022-12-18T17:09:44.697Z,64.01
2022-12-18T17:14:48.266Z,64.01
2022-12-18T17:19:54.169Z,64.58
2022-12-18T17:24:57.682Z,64.61
2022-12-18T17:30:01.183Z,64.14
2022-12-18T17:35:07.470Z,64.74
2022-12-18T17:40:12.047Z,64.68
2022-12-18T17:45:15.610Z,65.07
2022-12-18T17:50:20.490Z,65.02
2022-12-18T17:55:23.931Z,64.60
2022-12-18T18:00:27.414Z,65.33
2022-12-18T18:05:32.312Z,64.97
2022-12-18T18:10:38.444Z,64.17
2022-12-18T18:15:42.496Z,65.15
2022-12-18T18:20:47.430Z,65.44
2022-12-18T18:25:53.696Z,65.01
2022-12-18T18:30:57.214Z,65.33
2022-12-18T18:36:02.507Z,64.86
2022-12-18T18:41:06.805Z,65.18
2022-12-18T18:46:13.682Z,65.20
2022-12-18T18:51:21.184Z,65.29
2022-12-18T18:56:56.420Z,65.29
2022-12-18T19:01:52.913Z,64.84
2022-12-18T19:06:57.895Z,65.33
2022-12-18T19:12:18.772Z,65.64
2022-12-18T19:17:27.924Z,65.22
2022-12-18T19:22:34.714Z,65.13
2022-12-18T19:27:39.117Z,65.26
2022-12-18T19:32:42.629Z,65.80
2022-12-18T19:37:47.506Z,65.29
2022-12-18T19:42:51.279Z,65.06
2022-12-18T19:47:56.668Z,65.17
2022-12-18T19:53:04.693Z,65.09
2022-12-18T19:58:10.565Z,64.88
2022-12-18T20:03:23.463Z,65.14
2022-12-18T20:08:33.645Z,65.14
2022-12-18T20:13:37.684Z,65.15
2022-12-18T20:18:41.266Z,65.35
2022-12-18T20:23:47.320Z,65.71
2022-12-18T20:28:50.837Z,65.56
2022-12-18T20:33:54.577Z,65.20
2022-12-18T20:39:03.873Z,65.69
2022-12-18T20:44:21.568Z,65.87
2022-12-18T20:49:28.230Z,65.49
2022-12-18T20:54:33.125Z,65.54
2022-12-18T20:59:36.553Z,65.72
2022-12-18T21:04:40.112Z,65.35
2022-12-18T21:09:44.994Z,65.46
2022-12-18T21:14:48.525Z,65.62
2022-12-18T21:19:54.163Z,64.98
2022-12-18T21:24:59.850Z,65.54
2022-12-18T21:30:03.428Z,65.27
2022-12-18T21:35:07.662Z,65.36
2022-12-18T21:40:13.595Z,65.40
2022-12-18T21:45:17.283Z,64.81
2022-12-18T21:50:20.789Z,65.43
2022-12-18T21:55:25.907Z,64.93
2022-12-18T22:00:29.344Z,65.22
2022-12-18T22:05:32.826Z,65.61
2022-12-18T22:10:38.437Z,65.53
2022-12-18T22:15:42.091Z,65.28
2022-12-18T22:20:45.577Z,65.16
2022-12-18T22:25:50.490Z,64.98
2022-12-18T22:30:55.133Z,65.23
2022-12-18T22:36:07.041Z,65.07
2022-12-18T22:41:11.943Z,65.58
2022-12-18T22:46:17.287Z,64.93
2022-12-18T22:51:21.466Z,64.91
2022-12-18T22:56:26.394Z,64.63
2022-12-18T23:01:31.233Z,65.06
2022-12-18T23:06:36.175Z,65.10
2022-12-18T23:11:41.097Z,64.99
2022-12-18T23:16:44.733Z,65.34
2022-12-18T23:21:50.004Z,64.44
2022-12-18T23:26:54.878Z,65.00
2022-12-18T23:31:58.406Z,64.85
2022-12-18T23:37:04.003Z,64.68
2022-12-18T23:42:09.041Z,64.04
2022-12-18T23:47:13.877Z,64.87
2022-12-18T23:52:17.247Z,64.19
2022-12-18T23:57:22.122Z,64.47
